Time;durP1;ratioP1;P1;durP2;ratioP2;P2;SDS_P1;SDS_P2;PMS_P1;PMS_P2;Temp;Humidity;BMP_temperature;BMP_pressure;BME280_temperature;BME280_humidity;BME280_pressure;Samples;Min_cycle;Max_cycle;Signal;HPM_P1;HPM_P2
2023/08/03 00:02:14;;;;;;;0.20;0.20;;;;;;;;;;6214406;23;20385;-70
2023/08/03 00:04:40;;;;;;;0.00;0.00;;;;;;;;;;6215696;23;20301;-70
2023/08/03 00:07:07;;;;;;;0.00;0.00;;;;;;;;;;6213572;23;20151;-70
2023/08/03 00:09:34;;;;;;;0.00;0.00;;;;;;;;;;6209294;23;20001;-70
2023/08/03 00:12:01;;;;;;;0.20;0.10;;;;;;;;;;6208963;23;20004;-71
2023/08/03 00:14:28;;;;;;;0.30;0.10;;;;;;;;;;6209177;23;20059;-69
2023/08/03 00:16:54;;;;;;;0.47;0.17;;;;;;;;;;6210518;23;20426;-70
2023/08/03 00:19:21;;;;;;;2.15;0.35;;;;;;;;;;6214570;23;20374;-70
2023/08/03 00:21:48;;;;;;;0.00;0.00;;;;;;;;;;6215988;23;20008;-70
2023/08/03 00:24:15;;;;;;;0.10;0.10;;;;;;;;;;6213998;23;20039;-70
2023/08/03 00:26:41;;;;;;;0.10;0.10;;;;;;;;;;6213744;23;20066;-70
2023/08/03 00:29:08;;;;;;;0.00;0.00;;;;;;;;;;6212578;23;20016;-70
2023/08/03 00:31:35;;;;;;;0.17;0.10;;;;;;;;;;6209113;23;20020;-70
2023/08/03 00:34:02;;;;;;;0.00;0.00;;;;;;;;;;6208520;23;20717;-70
2023/08/03 00:36:28;;;;;;;0.00;0.00;;;;;;;;;;6207704;23;20074;-70
2023/08/03 00:38:55;;;;;;;0.00;0.00;;;;;;;;;;6207990;23;20084;-70
2023/08/03 00:41:22;;;;;;;0.33;0.10;;;;;;;;;;6215592;23;20055;-70
2023/08/03 00:43:49;;;;;;;0.00;0.00;;;;;;;;;;6215148;23;20004;-70
2023/08/03 00:46:16;;;;;;;0.17;0.10;;;;;;;;;;6215544;23;20031;-70
2023/08/03 00:48:42;;;;;;;0.00;0.00;;;;;;;;;;6215530;23;20056;-69
2023/08/03 00:51:11;;;;;;;0.03;0.03;;;;;;;;;;6214842;23;20008;-70
2023/08/03 00:53:39;;;;;;;0.00;0.00;;;;;;;;;;6207152;23;20008;-70
2023/08/03 00:56:06;;;;;;;0.00;0.00;;;;;;;;;;6209025;23;20079;-70
2023/08/03 00:58:33;;;;;;;0.10;0.10;;;;;;;;;;6208568;23;20000;-70
2023/08/03 01:01:00;;;;;;;0.33;0.30;;;;;;;;;;6208650;23;20079;-69
2023/08/03 01:03:27;;;;;;;0.10;0.10;;;;;;;;;;6212846;23;20327;-71
2023/08/03 01:05:54;;;;;;;0.20;0.13;;;;;;;;;;6215184;23;20001;-69
2023/08/03 01:08:21;;;;;;;7.10;0.37;;;;;;;;;;6214668;23;20009;-69
2023/08/03 01:10:47;;;;;;;0.50;0.30;;;;;;;;;;6215282;23;20000;-70
2023/08/03 01:13:14;;;;;;;0.43;0.20;;;;;;;;;;6215265;23;20001;-69
2023/08/03 01:15:41;;;;;;;2.77;0.70;;;;;;;;;;6208815;23;20023;-70
2023/08/03 01:18:08;;;;;;;0.13;0.10;;;;;;;;;;6208552;23;20093;-69
2023/08/03 01:20:36;;;;;;;3.53;0.60;;;;;;;;;;6208370;23;20004;-69
2023/08/03 01:23:08;;;;;;;0.20;0.17;;;;;;;;;;6207057;23;20011;-69
2023/08/03 01:25:35;;;;;;;0.20;0.10;;;;;;;;;;6213826;23;20009;-69
2023/08/03 01:28:05;;;;;;;0.00;0.00;;;;;;;;;;6213449;23;20448;-70
2023/08/03 01:30:32;;;;;;;0.30;0.20;;;;;;;;;;6214859;23;20448;-69
2023/08/03 01:32:59;;;;;;;0.20;0.20;;;;;;;;;;6215093;23;20004;-69
2023/08/03 01:35:26;;;;;;;0.50;0.30;;;;;;;;;;6214807;23;20012;-69
2023/08/03 01:37:53;;;;;;;0.63;0.30;;;;;;;;;;6207626;23;20388;-69
2023/08/03 01:40:23;;;;;;;0.70;0.40;;;;;;;;;;6208163;23;20025;-69
2023/08/03 01:42:49;;;;;;;4.50;0.60;;;;;;;;;;6208611;23;20076;-69
2023/08/03 01:45:16;;;;;;;2.30;0.47;;;;;;;;;;6207152;23;20005;-71
2023/08/03 01:47:43;;;;;;;1.07;0.27;;;;;;;;;;6211260;23;20087;-69
2023/08/03 01:50:10;;;;;;;1.50;0.60;;;;;;;;;;6214977;23;20054;-69
2023/08/03 01:52:37;;;;;;;0.30;0.20;;;;;;;;;;6214980;23;20000;-69
2023/08/03 01:55:04;;;;;;;1.53;0.20;;;;;;;;;;6213275;23;20005;-69
2023/08/03 01:57:30;;;;;;;0.77;0.40;;;;;;;;;;6214403;23;20000;-69
2023/08/03 01:59:57;;;;;;;0.00;0.00;;;;;;;;;;6210115;23;20007;-69
2023/08/03 02:02:24;;;;;;;0.17;0.10;;;;;;;;;;6208230;23;20005;-70
2023/08/03 02:04:51;;;;;;;0.10;0.10;;;;;;;;;;6207943;23;20053;-69
2023/08/03 02:07:18;;;;;;;1.60;0.37;;;;;;;;;;6208118;23;20040;-68
2023/08/03 02:09:45;;;;;;;0.00;0.00;;;;;;;;;;6211784;23;20428;-68
2023/08/03 02:12:12;;;;;;;0.60;0.23;;;;;;;;;;6214303;23;20325;-69
2023/08/03 02:14:39;;;;;;;0.63;0.20;;;;;;;;;;6212453;23;20054;-69
2023/08/03 02:17:06;;;;;;;0.43;0.23;;;;;;;;;;6213302;23;20004;-69
2023/08/03 02:19:35;;;;;;;0.20;0.20;;;;;;;;;;6213130;23;20475;-69
2023/08/03 02:22:01;;;;;;;0.50;0.40;;;;;;;;;;6210703;23;20001;-69
2023/08/03 02:24:29;;;;;;;1.20;0.23;;;;;;;;;;6206342;23;20070;-69
2023/08/03 02:26:55;;;;;;;0.43;0.43;;;;;;;;;;6206232;23;20098;-69
2023/08/03 02:29:22;;;;;;;10.20;0.77;;;;;;;;;;6208254;23;20012;-69
2023/08/03 02:31:49;;;;;;;0.13;0.07;;;;;;;;;;6210722;23;20007;-69
2023/08/03 02:34:16;;;;;;;0.63;0.40;;;;;;;;;;6214308;23;20005;-69
2023/08/03 02:36:43;;;;;;;0.43;0.20;;;;;;;;;;6214550;23;20050;-69
2023/08/03 02:39:09;;;;;;;0.10;0.03;;;;;;;;;;6214584;23;20000;-69
2023/08/03 02:41:38;;;;;;;0.80;0.07;;;;;;;;;;6212927;23;20087;-69
2023/08/03 02:44:05;;;;;;;0.00;0.00;;;;;;;;;;6210865;23;20365;-68
2023/08/03 02:46:32;;;;;;;0.27;0.10;;;;;;;;;;6207871;23;20005;-68
2023/08/03 02:49:00;;;;;;;0.27;0.20;;;;;;;;;;6207816;23;20408;-69
2023/08/03 02:51:27;;;;;;;0.10;0.10;;;;;;;;;;6208303;23;20009;-68
2023/08/03 02:53:53;;;;;;;0.00;0.00;;;;;;;;;;6209966;23;20510;-69
2023/08/03 02:56:20;;;;;;;0.10;0.10;;;;;;;;;;6214294;23;20007;-68
2023/08/03 02:58:47;;;;;;;0.20;0.13;;;;;;;;;;6212862;23;20012;-69
2023/08/03 03:01:14;;;;;;;5.07;0.20;;;;;;;;;;6212608;23;20011;-69
2023/08/03 03:03:41;;;;;;;0.00;0.00;;;;;;;;;;6214458;23;20036;-69
2023/08/03 03:06:08;;;;;;;1.07;0.80;;;;;;;;;;6211268;23;20055;-68
2023/08/03 03:08:34;;;;;;;1.23;0.67;;;;;;;;;;6206594;23;20016;-69
2023/08/03 03:11:01;;;;;;;0.60;0.30;;;;;;;;;;6208223;23;20009;-68
2023/08/03 03:13:28;;;;;;;0.60;0.23;;;;;;;;;;6207919;23;20392;-68
2023/08/03 03:15:55;;;;;;;1.60;0.50;;;;;;;;;;6208982;23;20058;-68
2023/08/03 03:18:21;;;;;;;0.23;0.20;;;;;;;;;;6214211;23;20024;-68
2023/08/03 03:20:48;;;;;;;0.73;0.37;;;;;;;;;;6214266;23;20007;-68
2023/08/03 03:23:15;;;;;;;0.33;0.20;;;;;;;;;;6213794;23;20342;-68
2023/08/03 03:25:42;;;;;;;0.63;0.30;;;;;;;;;;6216456;23;20051;-68
2023/08/03 03:28:08;;;;;;;0.23;0.20;;;;;;;;;;6214312;23;20013;-68
2023/08/03 03:30:35;;;;;;;2.00;0.30;;;;;;;;;;6207909;23;20020;-68
2023/08/03 03:33:02;;;;;;;0.60;0.40;;;;;;;;;;6209848;23;20076;-68
2023/08/03 03:35:29;;;;;;;0.80;0.53;;;;;;;;;;6209543;23;20624;-68
2023/08/03 03:37:56;;;;;;;1.70;0.73;;;;;;;;;;6210750;23;20004;-68
2023/08/03 03:40:22;;;;;;;1.00;0.50;;;;;;;;;;6215785;23;20080;-69
2023/08/03 03:42:49;;;;;;;1.00;0.60;;;;;;;;;;6215730;23;20067;-68
2023/08/03 03:45:16;;;;;;;0.20;0.10;;;;;;;;;;6216213;23;20359;-68
2023/08/03 03:47:43;;;;;;;1.03;0.63;;;;;;;;;;6216022;23;20019;-69
2023/08/03 03:50:10;;;;;;;0.90;0.50;;;;;;;;;;6215755;23;20078;-68
2023/08/03 03:52:36;;;;;;;0.60;0.47;;;;;;;;;;6209129;23;20340;-68
2023/08/03 03:55:03;;;;;;;0.70;0.53;;;;;;;;;;6207769;23;20075;-69
2023/08/03 03:57:31;;;;;;;1.13;0.70;;;;;;;;;;6209650;23;20000;-68
2023/08/03 03:59:58;;;;;;;1.60;0.73;;;;;;;;;;6209277;23;20051;-68
2023/08/03 04:02:25;;;;;;;0.70;0.47;;;;;;;;;;6213602;23;20332;-69
2023/08/03 04:04:52;;;;;;;1.37;0.70;;;;;;;;;;6214312;23;20371;-68
2023/08/03 04:07:18;;;;;;;2.13;0.87;;;;;;;;;;6215866;23;20012;-68
2023/08/03 04:09:45;;;;;;;0.93;0.63;;;;;;;;;;6215811;23;20004;-68
2023/08/03 04:12:12;;;;;;;0.60;0.50;;;;;;;;;;6214209;23;20011;-68
2023/08/03 04:14:39;;;;;;;2.60;0.53;;;;;;;;;;6209345;23;20009;-68
2023/08/03 04:17:06;;;;;;;0.80;0.57;;;;;;;;;;6206628;23;20012;-69
2023/08/03 04:19:33;;;;;;;9.83;0.70;;;;;;;;;;6209716;23;20064;-68
2023/08/03 04:22:00;;;;;;;1.20;0.93;;;;;;;;;;6209011;23;20417;-68
2023/08/03 04:24:28;;;;;;;1.20;0.57;;;;;;;;;;6212579;23;20336;-69
2023/08/03 04:26:55;;;;;;;12.40;0.77;;;;;;;;;;6215497;23;20004;-69
2023/08/03 04:29:22;;;;;;;0.47;0.37;;;;;;;;;;6215618;23;20012;-68
2023/08/03 04:31:48;;;;;;;11.50;0.97;;;;;;;;;;6215684;23;20000;-69
2023/08/03 04:34:15;;;;;;;6.70;1.40;;;;;;;;;;6212749;23;20443;-68
2023/08/03 04:36:43;;;;;;;0.87;0.60;;;;;;;;;;6210649;23;20316;-69
2023/08/03 04:39:09;;;;;;;1.77;0.83;;;;;;;;;;6209613;23;20004;-69
2023/08/03 04:41:36;;;;;;;0.80;0.50;;;;;;;;;;6207963;23;20483;-69
2023/08/03 04:44:03;;;;;;;1.03;0.73;;;;;;;;;;6209353;23;20008;-69
2023/08/03 04:46:30;;;;;;;0.37;0.37;;;;;;;;;;6213569;23;20062;-69
2023/08/03 04:48:58;;;;;;;1.50;0.73;;;;;;;;;;6215435;23;20019;-68
2023/08/03 04:51:25;;;;;;;0.57;0.43;;;;;;;;;;6213349;23;20387;-70
2023/08/03 04:53:51;;;;;;;0.90;0.57;;;;;;;;;;6215222;23;20011;-69
2023/08/03 04:56:18;;;;;;;1.10;0.73;;;;;;;;;;6214962;23;20495;-69
2023/08/03 04:58:45;;;;;;;0.93;0.43;;;;;;;;;;6210404;23;20367;-68
2023/08/03 05:01:12;;;;;;;1.03;0.70;;;;;;;;;;6207417;23;20008;-69
2023/08/03 05:03:39;;;;;;;0.80;0.60;;;;;;;;;;6209447;23;20993;-69
2023/08/03 05:06:05;;;;;;;0.33;0.30;;;;;;;;;;6209090;23;20027;-69
2023/08/03 05:08:32;;;;;;;1.80;0.73;;;;;;;;;;6211910;23;20009;-68
2023/08/03 05:10:59;;;;;;;0.87;0.60;;;;;;;;;;6215399;23;20024;-68
2023/08/03 05:13:26;;;;;;;1.97;0.83;;;;;;;;;;6215351;23;20332;-69
2023/08/03 05:15:52;;;;;;;0.70;0.30;;;;;;;;;;6215176;23;20440;-69
2023/08/03 05:18:19;;;;;;;0.63;0.40;;;;;;;;;;6214970;23;20001;-68
2023/08/03 05:20:46;;;;;;;1.23;0.70;;;;;;;;;;6211439;23;20412;-69
2023/08/03 05:23:13;;;;;;;1.27;0.90;;;;;;;;;;6206663;23;20032;-69
2023/08/03 05:25:40;;;;;;;0.87;0.57;;;;;;;;;;6208703;23;20000;-69
2023/08/03 05:28:07;;;;;;;1.40;0.60;;;;;;;;;;6208879;23;20008;-68
2023/08/03 05:30:34;;;;;;;1.07;0.87;;;;;;;;;;6209782;23;20012;-69
2023/08/03 05:33:03;;;;;;;0.90;0.60;;;;;;;;;;6215023;23;20009;-68
2023/08/03 05:35:30;;;;;;;0.70;0.33;;;;;;;;;;6214616;23;20005;-68
2023/08/03 05:37:57;;;;;;;1.40;0.60;;;;;;;;;;6215108;23;20071;-68
2023/08/03 05:40:24;;;;;;;1.00;0.47;;;;;;;;;;6213195;23;20432;-68
2023/08/03 05:42:51;;;;;;;0.93;0.67;;;;;;;;;;6211762;23;20032;-69
2023/08/03 05:45:38;;;;;;;1.90;0.80;;;;;;;;;;6208922;23;20072;-68
2023/08/03 05:48:12;;;;;;;0.40;0.40;;;;;;;;;;6208632;23;20016;-68
2023/08/03 05:50:41;;;;;;;0.30;0.10;;;;;;;;;;6208023;23;20032;-69
2023/08/03 05:53:09;;;;;;;0.90;0.47;;;;;;;;;;6210200;23;20060;-69
2023/08/03 05:55:36;;;;;;;2.30;0.50;;;;;;;;;;6213984;23;20009;-69
2023/08/03 05:58:03;;;;;;;0.93;0.70;;;;;;;;;;6213427;23;20582;-69
2023/08/03 06:00:30;;;;;;;0.47;0.40;;;;;;;;;;6213441;23;20032;-69
2023/08/03 06:03:00;;;;;;;0.40;0.30;;;;;;;;;;6213708;23;20431;-68
2023/08/03 06:05:39;;;;;;;0.60;0.50;;;;;;;;;;6209485;23;20014;-69
2023/08/03 06:08:13;;;;;;;4.33;0.53;;;;;;;;;;6208159;23;20012;-69
2023/08/03 06:10:40;;;;;;;0.75;0.50;;;;;;;;;;6208339;23;20340;-68
2023/08/03 06:13:10;;;;;;;4.10;0.53;;;;;;;;;;6207046;23;20416;-69
2023/08/03 06:15:37;;;;;;;0.40;0.33;;;;;;;;;;6210950;23;20479;-68
2023/08/03 06:18:04;;;;;;;1.93;0.80;;;;;;;;;;6213168;23;20008;-69
2023/08/03 06:20:31;;;;;;;0.90;0.63;;;;;;;;;;6214805;23;20005;-69
2023/08/03 06:22:58;;;;;;;0.73;0.67;;;;;;;;;;6214880;23;20066;-68
2023/08/03 06:25:26;;;;;;;1.37;0.80;;;;;;;;;;6214663;23;20012;-68
2023/08/03 06:27:53;;;;;;;1.17;1.00;;;;;;;;;;6208743;23;20103;-69
2023/08/03 06:30:19;;;;;;;0.83;0.37;;;;;;;;;;6208261;23;20008;-68
2023/08/03 06:32:46;;;;;;;0.93;0.50;;;;;;;;;;6207023;23;20011;-68
2023/08/03 06:35:31;;;;;;;0.47;0.30;;;;;;;;;;6208133;23;20008;-68
2023/08/03 06:38:00;;;;;;;0.90;0.55;;;;;;;;;;6211036;23;20432;-68
2023/08/03 06:40:27;;;;;;;0.77;0.57;;;;;;;;;;6214585;23;20451;-68
2023/08/03 06:42:54;;;;;;;1.60;0.90;;;;;;;;;;6214449;23;20079;-68
2023/08/03 06:45:21;;;;;;;0.83;0.70;;;;;;;;;;6213018;23;20325;-68
2023/08/03 06:47:48;;;;;;;1.10;0.77;;;;;;;;;;6214198;23;20443;-69
2023/08/03 06:50:15;;;;;;;1.83;0.53;;;;;;;;;;6210247;23;20047;-68
2023/08/03 06:52:42;;;;;;;8.57;0.90;;;;;;;;;;6209122;23;20590;-69
2023/08/03 06:55:09;;;;;;;0.93;0.50;;;;;;;;;;6208445;23;20001;-69
2023/08/03 06:57:36;;;;;;;1.27;0.73;;;;;;;;;;6209356;23;20320;-68
2023/08/03 07:00:02;;;;;;;1.70;0.73;;;;;;;;;;6214407;23;20007;-68
2023/08/03 07:02:29;;;;;;;0.77;0.60;;;;;;;;;;6214981;23;20005;-69
2023/08/03 07:04:56;;;;;;;1.43;0.90;;;;;;;;;;6216145;23;20098;-68
2023/08/03 07:07:23;;;;;;;0.30;0.27;;;;;;;;;;6217001;23;20016;-68
2023/08/03 07:09:50;;;;;;;1.00;0.73;;;;;;;;;;6216666;23;20009;-68
2023/08/03 07:12:17;;;;;;;0.87;0.57;;;;;;;;;;6211881;23;20005;-68
2023/08/03 07:14:44;;;;;;;0.43;0.43;;;;;;;;;;6210251;23;20075;-68
2023/08/03 07:17:11;;;;;;;0.90;0.70;;;;;;;;;;6208615;23;20432;-68
2023/08/03 07:19:37;;;;;;;0.87;0.63;;;;;;;;;;6208699;23;20419;-69
2023/08/03 07:22:04;;;;;;;1.90;0.83;;;;;;;;;;6211227;23;20008;-67
2023/08/03 07:24:35;;;;;;;0.50;0.50;;;;;;;;;;6216275;23;20447;-68
2023/08/03 07:27:02;;;;;;;1.57;0.60;;;;;;;;;;6216609;23;20323;-68
2023/08/03 07:29:30;;;;;;;1.50;0.80;;;;;;;;;;6214688;23;20028;-68
2023/08/03 07:31:57;;;;;;;3.20;0.87;;;;;;;;;;6216497;23;20009;-68
2023/08/03 07:34:24;;;;;;;0.97;0.70;;;;;;;;;;6211325;23;20301;-69
2023/08/03 07:36:54;;;;;;;1.80;1.03;;;;;;;;;;6209972;23;20005;-68
2023/08/03 07:39:21;;;;;;;0.67;0.57;;;;;;;;;;6209989;23;20004;-68
2023/08/03 07:41:48;;;;;;;2.60;0.87;;;;;;;;;;6208575;23;20009;-68
2023/08/03 07:44:18;;;;;;;1.87;1.13;;;;;;;;;;6212776;23;20370;-68
2023/08/03 07:46:45;;;;;;;0.30;0.30;;;;;;;;;;6215809;23;20012;-68
2023/08/03 07:49:12;;;;;;;0.60;0.40;;;;;;;;;;6216612;23;20008;-68
2023/08/03 07:51:39;;;;;;;1.30;0.80;;;;;;;;;;6216092;23;20032;-68
2023/08/03 07:54:06;;;;;;;0.63;0.37;;;;;;;;;;6215675;23;20008;-68
2023/08/03 07:56:32;;;;;;;2.17;0.90;;;;;;;;;;6212968;23;20008;-68
2023/08/03 07:59:00;;;;;;;0.90;0.70;;;;;;;;;;6209959;23;20058;-69
2023/08/03 08:01:27;;;;;;;0.50;0.30;;;;;;;;;;6209924;23;20077;-68
2023/08/03 08:03:54;;;;;;;0.90;0.70;;;;;;;;;;6208163;23;20009;-68
2023/08/03 08:06:21;;;;;;;0.30;0.27;;;;;;;;;;6212172;23;20000;-68
2023/08/03 08:08:48;;;;;;;0.30;0.30;;;;;;;;;;6215436;23;20091;-68
2023/08/03 08:11:17;;;;;;;13.30;1.03;;;;;;;;;;6215870;23;20009;-69
2023/08/03 08:13:44;;;;;;;0.50;0.50;;;;;;;;;;6216057;23;20074;-68
2023/08/03 08:16:12;;;;;;;0.70;0.60;;;;;;;;;;6216035;23;20012;-68
2023/08/03 08:18:39;;;;;;;1.87;0.73;;;;;;;;;;6213478;23;20000;-68
2023/08/03 08:21:10;;;;;;;7.30;1.60;;;;;;;;;;6209632;23;20009;-69
2023/08/03 08:23:37;;;;;;;5.30;1.43;;;;;;;;;;6209711;23;20024;-68
2023/08/03 08:26:11;;;;;;;1.60;0.80;;;;;;;;;;6209338;23;20439;-68
2023/08/03 08:28:38;;;;;;;2.33;1.00;;;;;;;;;;6211632;23;20367;-69
2023/08/03 08:31:05;;;;;;;3.60;1.17;;;;;;;;;;6215883;23;20005;-69
2023/08/03 08:33:31;;;;;;;1.07;0.77;;;;;;;;;;6215755;23;20005;-68
2023/08/03 08:35:58;;;;;;;0.90;0.53;;;;;;;;;;6215646;23;20054;-68
2023/08/03 08:38:25;;;;;;;0.67;0.60;;;;;;;;;;6215877;23;20009;-68
2023/08/03 08:40:52;;;;;;;5.37;1.20;;;;;;;;;;6211132;23;20005;-68
2023/08/03 08:43:20;;;;;;;1.40;0.90;;;;;;;;;;6207859;23;20336;-68
2023/08/03 08:45:47;;;;;;;1.17;0.90;;;;;;;;;;6207791;23;20035;-68
2023/08/03 08:48:14;;;;;;;0.80;0.63;;;;;;;;;;6209399;23;20075;-69
2023/08/03 08:50:42;;;;;;;0.67;0.50;;;;;;;;;;6211102;23;20004;-69
2023/08/03 08:53:09;;;;;;;0.50;0.40;;;;;;;;;;6215744;23;20001;-68
2023/08/03 08:55:36;;;;;;;0.50;0.40;;;;;;;;;;6215724;23;20031;-68
2023/08/03 08:58:03;;;;;;;0.40;0.40;;;;;;;;;;6214931;23;20020;-68
2023/08/03 09:00:29;;;;;;;0.67;0.50;;;;;;;;;;6213803;23;20019;-68
2023/08/03 09:02:57;;;;;;;0.77;0.50;;;;;;;;;;6213878;23;20005;-68
2023/08/03 09:05:25;;;;;;;1.30;0.73;;;;;;;;;;6209528;23;20024;-68
2023/08/03 09:08:05;;;;;;;1.17;0.67;;;;;;;;;;6209700;23;20035;-69
2023/08/03 09:10:32;;;;;;;1.30;0.70;;;;;;;;;;6208881;23;20332;-68
2023/08/03 09:12:59;;;;;;;0.40;0.40;;;;;;;;;;6209010;23;20009;-69
2023/08/03 09:15:42;;;;;;;0.67;0.40;;;;;;;;;;6213759;23;20011;-68
2023/08/03 09:18:08;;;;;;;2.00;0.70;;;;;;;;;;6215175;23;20010;-69
2023/08/03 09:20:35;;;;;;;0.73;0.60;;;;;;;;;;6215195;23;20032;-68
2023/08/03 09:23:02;;;;;;;0.97;0.67;;;;;;;;;;6213405;23;20009;-68
2023/08/03 09:25:29;;;;;;;0.33;0.33;;;;;;;;;;6212829;23;20416;-69
2023/08/03 09:27:57;;;;;;;0.30;0.30;;;;;;;;;;6209281;23;20027;-68
2023/08/03 09:30:27;;;;;;;1.20;0.63;;;;;;;;;;6209121;23;20012;-69
2023/08/03 09:32:53;;;;;;;1.40;0.63;;;;;;;;;;6208955;23;20001;-69
2023/08/03 09:35:24;;;;;;;0.53;0.47;;;;;;;;;;6210152;23;20005;-69
2023/08/03 09:37:52;;;;;;;0.90;0.30;;;;;;;;;;6213737;23;20014;-68
2023/08/03 09:40:20;;;;;;;2.80;0.87;;;;;;;;;;6213234;23;20332;-69
2023/08/03 09:42:49;;;;;;;1.13;0.40;;;;;;;;;;6215139;23;20008;-69
2023/08/03 09:45:16;;;;;;;0.40;0.40;;;;;;;;;;6215166;23;20011;-69
2023/08/03 09:47:43;;;;;;;1.90;0.90;;;;;;;;;;6212453;23;20009;-69
2023/08/03 09:50:10;;;;;;;1.20;0.70;;;;;;;;;;6207358;23;20008;-69
2023/08/03 09:52:39;;;;;;;6.03;1.17;;;;;;;;;;6207144;23;20016;-69
2023/08/03 09:55:10;;;;;;;0.73;0.53;;;;;;;;;;6208539;23;20009;-68
2023/08/03 09:57:48;;;;;;;1.20;0.93;;;;;;;;;;6208861;23;20023;-68
2023/08/03 10:00:16;;;;;;;1.60;1.10;;;;;;;;;;6214823;23;20020;-68
2023/08/03 10:02:52;;;;;;;0.50;0.50;;;;;;;;;;6213447;23;20008;-68
2023/08/03 10:05:20;;;;;;;0.50;0.43;;;;;;;;;;6212915;23;20015;-68
2023/08/03 10:08:07;;;;;;;1.73;0.97;;;;;;;;;;6214535;23;20336;-68
2023/08/03 10:10:37;;;;;;;0.80;0.70;;;;;;;;;;6211060;23;20007;-68
2023/08/03 10:13:06;;;;;;;0.63;0.57;;;;;;;;;;6207429;23;20009;-69
2023/08/03 10:15:33;;;;;;;3.43;1.43;;;;;;;;;;6208327;23;20420;-68
2023/08/03 10:18:01;;;;;;;11.53;1.13;;;;;;;;;;6208806;23;20001;-69
2023/08/03 10:20:28;;;;;;;1.03;0.83;;;;;;;;;;6211763;23;20004;-69
2023/08/03 10:23:08;;;;;;;2.43;1.17;;;;;;;;;;6214864;23;20016;-69
2023/08/03 10:25:51;;;;;;;1.63;0.43;;;;;;;;;;6214625;23;20005;-68
2023/08/03 10:28:18;;;;;;;0.57;0.50;;;;;;;;;;6214694;23;20047;-69
2023/08/03 10:31:05;;;;;;;1.60;0.87;;;;;;;;;;6214821;23;20385;-69
2023/08/03 10:33:51;;;;;;;1.40;1.00;;;;;;;;;;6208856;23;20032;-69
2023/08/03 10:36:17;;;;;;;;;;;;;;;;;;6209137;23;20001;-68
2023/08/03 10:38:44;;;;;;;0.67;0.60;;;;;;;;;;6208690;23;19904;-69
2023/08/03 10:41:24;;;;;;;2.00;1.00;;;;;;;;;;6206935;23;20447;-68
2023/08/03 10:44:10;;;;;;;8.00;1.37;;;;;;;;;;6212926;23;20005;-68
2023/08/03 10:46:38;;;;;;;2.80;0.83;;;;;;;;;;6213164;23;21116;-69
2023/08/03 10:49:20;;;;;;;1.20;0.80;;;;;;;;;;6214673;23;20015;-68
2023/08/03 10:51:51;;;;;;;1.33;0.73;;;;;;;;;;6215059;23;20401;-68
2023/08/03 10:54:18;;;;;;;0.63;0.50;;;;;;;;;;6212458;23;20026;-68
2023/08/03 10:57:05;;;;;;;1.60;1.07;;;;;;;;;;6208406;23;20032;-69
2023/08/03 10:59:43;;;;;;;9.87;1.00;;;;;;;;;;6207015;23;20016;-69
2023/08/03 11:02:29;;;;;;;0.47;0.47;;;;;;;;;;6208472;23;20328;-69
2023/08/03 11:05:04;;;;;;;3.17;0.80;;;;;;;;;;6211483;23;20058;-68
2023/08/03 11:07:33;;;;;;;1.25;0.63;;;;;;;;;;6213985;23;20013;-68
2023/08/03 11:10:05;;;;;;;0.63;0.53;;;;;;;;;;6212407;23;20011;-69
2023/08/03 11:12:33;;;;;;;0.73;0.60;;;;;;;;;;6214395;23;20438;-68
2023/08/03 11:15:05;;;;;;;2.90;0.70;;;;;;;;;;6212897;23;20091;-69
2023/08/03 11:17:33;;;;;;;1.07;0.70;;;;;;;;;;6208892;23;20498;-69
2023/08/03 11:20:01;;;;;;;1.27;0.83;;;;;;;;;;6208642;23;20408;-68
2023/08/03 11:22:28;;;;;;;1.03;0.70;;;;;;;;;;6207178;23;20099;-69
2023/08/03 11:24:56;;;;;;;0.57;0.57;;;;;;;;;;6206788;23;20135;-68
2023/08/03 11:27:23;;;;;;;0.87;0.60;;;;;;;;;;6211827;23;20008;-68
2023/08/03 11:29:55;;;;;;;1.70;1.03;;;;;;;;;;6214615;23;20012;-69
2023/08/03 11:32:22;;;;;;;9.47;1.00;;;;;;;;;;6212559;23;20004;-69
2023/08/03 11:34:49;;;;;;;0.50;0.50;;;;;;;;;;6214395;23;20005;-68
2023/08/03 11:37:15;;;;;;;1.53;0.80;;;;;;;;;;6214461;23;20012;-69
2023/08/03 11:39:42;;;;;;;1.00;0.70;;;;;;;;;;6210666;23;20001;-68
2023/08/03 11:42:10;;;;;;;1.40;0.70;;;;;;;;;;6208779;23;20005;-69
2023/08/03 11:44:40;;;;;;;0.97;0.70;;;;;;;;;;6209382;23;20028;-69
2023/08/03 11:47:08;;;;;;;1.47;0.77;;;;;;;;;;6208276;23;20472;-69
2023/08/03 11:49:35;;;;;;;1.10;0.70;;;;;;;;;;6213273;23;20011;-69
2023/08/03 11:52:02;;;;;;;1.20;0.67;;;;;;;;;;6214463;23;20008;-70
2023/08/03 11:54:30;;;;;;;0.50;0.40;;;;;;;;;;6216043;23;20007;-69
2023/08/03 11:59:44;;;;;;;0.60;0.60;;;;;;;;;;6216198;23;20071;-68
2023/08/03 12:02:11;;;;;;;0.93;0.60;;;;;;;;;;6211823;23;20136;-68
2023/08/03 12:04:37;;;;;;;1.33;0.80;;;;;;;;;;6210069;23;20000;-69
2023/08/03 12:07:04;;;;;;;0.40;0.40;;;;;;;;;;6209626;23;20408;-68
2023/08/03 12:09:40;;;;;;;0.60;0.43;;;;;;;;;;6209641;23;20000;-69
2023/08/03 12:12:07;;;;;;;6.47;1.00;;;;;;;;;;6213579;23;20082;-68
2023/08/03 12:14:34;;;;;;;0.40;0.33;;;;;;;;;;6216054;23;20008;-69
2023/08/03 12:17:01;;;;;;;0.73;0.30;;;;;;;;;;6215959;23;20004;-68
2023/08/03 12:19:32;;;;;;;0.87;0.33;;;;;;;;;;6214258;23;20066;-68
2023/08/03 12:22:00;;;;;;;0.73;0.60;;;;;;;;;;6215995;23;20004;-69
2023/08/03 12:24:27;;;;;;;0.60;0.53;;;;;;;;;;6210888;23;20005;-68
2023/08/03 12:26:54;;;;;;;0.63;0.50;;;;;;;;;;6207902;23;20008;-69
2023/08/03 12:29:21;;;;;;;0.90;0.40;;;;;;;;;;6208289;23;20008;-68
2023/08/03 12:31:48;;;;;;;0.50;0.40;;;;;;;;;;6208189;23;20328;-69
2023/08/03 12:34:15;;;;;;;0.80;0.57;;;;;;;;;;6213033;23;20008;-69
2023/08/03 12:36:41;;;;;;;0.40;0.30;;;;;;;;;;6215819;23;20000;-69
2023/08/03 12:39:09;;;;;;;1.77;0.87;;;;;;;;;;6215552;23;20071;-69
2023/08/03 12:41:36;;;;;;;1.13;0.73;;;;;;;;;;6215555;23;20009;-68
2023/08/03 12:44:03;;;;;;;0.80;0.60;;;;;;;;;;6215813;23;20011;-68
2023/08/03 12:46:30;;;;;;;1.90;0.50;;;;;;;;;;6211954;23;20009;-69
2023/08/03 12:48:58;;;;;;;4.50;1.07;;;;;;;;;;6209551;23;20025;-69
2023/08/03 12:51:25;;;;;;;1.93;0.83;;;;;;;;;;6209362;23;20011;-69
2023/08/03 12:53:51;;;;;;;0.90;0.60;;;;;;;;;;6209627;23;20009;-68
2023/08/03 12:56:18;;;;;;;1.50;0.90;;;;;;;;;;6211724;23;20006;-68
2023/08/03 12:58:45;;;;;;;0.77;0.60;;;;;;;;;;6215487;23;20055;-68
2023/08/03 13:01:12;;;;;;;2.10;0.67;;;;;;;;;;6215301;23;20012;-68
2023/08/03 13:03:39;;;;;;;0.50;0.47;;;;;;;;;;6215264;23;20058;-69
2023/08/03 13:06:06;;;;;;;0.77;0.60;;;;;;;;;;6215486;23;20016;-69
2023/08/03 13:08:33;;;;;;;2.67;1.00;;;;;;;;;;6212153;23;20009;-69
2023/08/03 13:11:00;;;;;;;0.70;0.50;;;;;;;;;;6209317;23;20013;-69
2023/08/03 13:13:27;;;;;;;1.40;0.83;;;;;;;;;;6208621;23;20005;-69
2023/08/03 13:15:54;;;;;;;3.17;0.73;;;;;;;;;;6207497;23;20009;-69
2023/08/03 13:18:23;;;;;;;0.33;0.30;;;;;;;;;;6211247;23;20005;-70
2023/08/03 13:20:50;;;;;;;1.17;0.60;;;;;;;;;;6213810;23;20016;-69
2023/08/03 13:23:17;;;;;;;1.33;0.57;;;;;;;;;;6213758;23;20313;-69
2023/08/03 13:25:43;;;;;;;0.70;0.40;;;;;;;;;;6213794;23;20436;-69
2023/08/03 13:28:10;;;;;;;2.10;0.70;;;;;;;;;;6215356;23;20016;-68
2023/08/03 13:30:37;;;;;;;2.10;0.53;;;;;;;;;;6210085;23;20036;-68
2023/08/03 13:33:04;;;;;;;1.10;0.67;;;;;;;;;;6208884;23;20331;-69
2023/08/03 13:35:30;;;;;;;0.43;0.40;;;;;;;;;;6208911;23;20009;-69
2023/08/03 13:37:57;;;;;;;1.93;0.90;;;;;;;;;;6209040;23;20005;-69
2023/08/03 13:40:24;;;;;;;1.17;0.60;;;;;;;;;;6210955;23;20005;-69
2023/08/03 13:42:51;;;;;;;0.30;0.20;;;;;;;;;;6215191;23;20028;-69
2023/08/03 13:45:18;;;;;;;4.07;0.80;;;;;;;;;;6214588;23;20028;-68
2023/08/03 13:47:45;;;;;;;1.47;0.83;;;;;;;;;;6214935;23;20009;-69
2023/08/03 13:50:12;;;;;;;2.67;0.83;;;;;;;;;;6214736;23;20083;-69
2023/08/03 13:52:38;;;;;;;2.93;0.97;;;;;;;;;;6212868;23;20361;-69
2023/08/03 13:55:05;;;;;;;2.17;0.80;;;;;;;;;;6208909;23;20298;-69
2023/08/03 13:57:32;;;;;;;0.83;0.60;;;;;;;;;;6207249;23;20008;-69
2023/08/03 13:59:59;;;;;;;0.70;0.37;;;;;;;;;;6206980;23;20031;-69
2023/08/03 14:02:26;;;;;;;1.57;0.80;;;;;;;;;;6209304;23;20424;-68
2023/08/03 14:04:53;;;;;;;1.50;0.90;;;;;;;;;;6214740;23;20371;-68
2023/08/03 14:07:20;;;;;;;0.93;0.80;;;;;;;;;;6215175;23;20083;-68
2023/08/03 14:09:47;;;;;;;0.77;0.67;;;;;;;;;;6214486;23;20012;-69
2023/08/03 14:12:14;;;;;;;0.40;0.40;;;;;;;;;;6213359;23;20066;-68
2023/08/03 14:14:41;;;;;;;4.63;0.87;;;;;;;;;;6213437;23;20480;-67
2023/08/03 14:17:09;;;;;;;0.57;0.50;;;;;;;;;;6208700;23;20079;-67
2023/08/03 14:19:36;;;;;;;2.13;1.13;;;;;;;;;;6207953;23;20036;-68
2023/08/03 14:22:03;;;;;;;0.30;0.30;;;;;;;;;;6208579;23;20385;-67
2023/08/03 14:24:30;;;;;;;1.47;0.90;;;;;;;;;;6208936;23;20038;-66
2023/08/03 14:26:56;;;;;;;0.70;0.47;;;;;;;;;;6211620;23;20008;-67
2023/08/03 14:29:23;;;;;;;3.33;0.77;;;;;;;;;;6211139;23;20023;-66
2023/08/03 14:31:50;;;;;;;0.80;0.53;;;;;;;;;;6214495;23;20004;-67
2023/08/03 14:34:23;;;;;;;1.40;0.87;;;;;;;;;;6214769;23;20031;-67
2023/08/03 14:36:51;;;;;;;0.53;0.40;;;;;;;;;;6213467;23;20011;-67
2023/08/03 14:39:17;;;;;;;0.60;0.50;;;;;;;;;;6208875;23;20024;-66
2023/08/03 14:41:45;;;;;;;1.10;0.63;;;;;;;;;;6208778;23;20034;-68
2023/08/03 14:44:12;;;;;;;0.57;0.50;;;;;;;;;;6208189;23;20436;-67
2023/08/03 14:46:39;;;;;;;1.87;0.73;;;;;;;;;;6207584;23;20070;-67
2023/08/03 14:49:06;;;;;;;1.47;0.87;;;;;;;;;;6212909;23;20024;-67
2023/08/03 14:51:35;;;;;;;0.67;0.50;;;;;;;;;;6214107;23;20008;-67